AirNav   TITAN Aviation Fuels
 
 505 users online  

NC65 Yonder Airport
Atkinson, North Carolina, USA

GOING TO ATKINSON?


FAA INFORMATION EFFECTIVE 03 NOVEMBER 2022

Location

FAA Identifier: NC65
Lat/Long: 34-33-34.6060N 078-16-04.9940W
34-33.576767N 078-16.083233W
34.5596128,-78.2680539
(estimated)
Elevation: 35 ft. / 11 m (estimated)
Variation: 07W (1985)
From city: 5 miles NW of ATKINSON, NC
Time zone: UTC -5 (UTC -4 during Daylight Saving Time)
Zip code: 28447

Airport Operations

Airport use: Private use. Permission required prior to landing
Activation date: 08/1977
Control tower: no
ARTCC: WASHINGTON CENTER
FSS: RALEIGH FLIGHT SERVICE STATION
Attendance: UNATNDD
Wind indicator: yes
Segmented circle: no

Airport Communications

WX AWOS-3P at EYF (16 nm W): 119.475 (910-862-9982)

Nearby radio navigation aids

VOR radial/distance  VOR name  Freq  Var
ILMr310/23.1WILMINGTON VORTAC117.0007W
FAYr135/39.3FAYETTEVILLE VOR/DME114.8504W

 
NDB name  Hdg/Dist  Freq  Var  ID
CLINTON178/25.441209WCTZ -.-. - --..
CAMP059/27.922707WCPC -.-. .--. -.-.

Airport Services

Runway Information

Runway 6/24

Dimensions: 3200 x 75 ft. / 975 x 23 m
Surface: turf
RUNWAY 6  RUNWAY 24
Traffic pattern: leftleft

Airport Ownership and Management from official FAA records

Ownership: Privately-owned
Owner: HEATH M. CHAPIN
320 WALNUT CREEK PKY ,H
RALEH, NC 27606
Phone 919-669-2232
Manager: HEATH M. CHAPIN
RT 1, BOX 153
IVANHOE, NC 28447
Phone 919-669-2232

Additional Remarks

FOR CD CTC WASHINGTON ARTCC AT 703-771-3587.

Instrument Procedures

There are no published instrument procedures at NC65.

Some nearby airports with instrument procedures:

KEYF - Curtis L Brown Jr. Field Airport (16 nm W)
KACZ - Henderson Field Airport (16 nm NE)
KILM - Wilmington International Airport (25 nm SE)
KCTZ - Clinton-Sampson County Airport (25 nm N)
KCPC - Columbus County Municipal Airport (28 nm SW)
 
Loc | Ops | Rwys | IFR | FBO | Links
Com | Nav | Svcs | Stats | Notes
Area around NC65 (Yonder Airport)
 
Road maps at: MapQuest Bing Google
 
Aerial photo
No photo
 
Sectional chart

 
Airport distance calculator
Flying to Yonder Airport? Find the distance to fly.

From to NC65

Sunrise and sunset
Times for 28-Nov-2022
 Local
(UTC-5)
 Zulu
(UTC)
Morning civil twilight06:3311:33
Sunrise07:0012:00
Sunset17:0222:02
Evening civil twilight17:3022:30

Current date and time
Zulu (UTC)  28-Nov-2022 08:08:51
Local (UTC-5)  28-Nov-2022 03:08:51
 
METAR
KEYF 
16nm W 
280755Z AUTO 24005KT 10SM CLR 15/08 A2980 RMK AO2 T01450084
KILM 
25nm SE 
280753Z AUTO 24008KT 10SM CLR 16/09 A2979 RMK AO2 SLP089 T01560089 $
KCTZ 
26nm N 
280755Z AUTO 25006KT 10SM CLR 15/10 A2977 RMK AO2 T01460095
KCPC 
28nm SW 
280755Z AUTO 25003KT 10SM CLR 15/08 A2982 RMK AO2 T01500079
KDPL 
30nm NE 
280755Z AUTO 24008KT 10SM CLR 14/08 A2976 RMK AO2
TAF
KILM 
25nm SE 
280520Z 2806/2906 25010KT P6SM SKC FM281500 27012G17KT P6SM SKC FM281800 28011G20KT P6SM SCT040
NOTAMs
Click for the latest NOTAMs
NOTAMs are issued by the DoD/FAA and will open in a separate window not controlled by AirNav.

 

 
 

Would you like to see your business listed on this page?

 If your business provides an interesting product or service to pilots, flight crews, aircraft, or users of the Yonder Airport, you should consider listing it here.  To start the listing process, click on the button below
 
Add a business
 

Other Pages about Yonder Airport

Update a link
 
Copyright © AirNav, LLC. All rights reserved. Privacy Policy  Contact